sensor_id;sensor_type;location;lat;lon;timestamp;pressure;altitude;pressure_sealevel;temperature;humidity
69524;BME280;56723;42.694;23.286;2023-05-08T06:51:53;95226.81;;;14.70;70.24
69524;BME280;56723;42.694;23.286;2023-05-08T06:54:23;95222.66;;;14.75;70.79
69524;BME280;56723;42.694;23.286;2023-05-08T06:56:51;95223.38;;;14.84;67.85
69524;BME280;56723;42.694;23.286;2023-05-08T06:59:20;95227.53;;;14.78;67.96
69524;BME280;56723;42.694;23.286;2023-05-08T07:01:49;95236.00;;;14.87;68.98
69524;BME280;56723;42.694;23.286;2023-05-08T07:04:16;95238.34;;;14.97;68.65
69524;BME280;56723;42.694;23.286;2023-05-08T07:06:43;95242.00;;;15.02;66.99
69524;BME280;56723;42.694;23.286;2023-05-08T07:09:10;95238.69;;;15.15;67.39
69524;BME280;56723;42.694;23.286;2023-05-08T07:11:38;95241.22;;;15.30;67.80
69524;BME280;56723;42.694;23.286;2023-05-08T07:14:05;95238.91;;;15.41;66.76
69524;BME280;56723;42.694;23.286;2023-05-08T07:16:33;95231.31;;;15.46;67.74
69524;BME280;56723;42.694;23.286;2023-05-08T07:19:00;95237.88;;;15.57;66.36
69524;BME280;56723;42.694;23.286;2023-05-08T07:21:27;95235.72;;;15.67;66.55
69524;BME280;56723;42.694;23.286;2023-05-08T07:23:55;95236.38;;;15.76;65.56
69524;BME280;56723;42.694;23.286;2023-05-08T07:26:22;95231.56;;;15.79;65.82
69524;BME280;56723;42.694;23.286;2023-05-08T07:28:49;95238.44;;;15.87;64.89
69524;BME280;56723;42.694;23.286;2023-05-08T07:31:16;95236.53;;;16.02;64.04
69524;BME280;56723;42.694;23.286;2023-05-08T07:33:43;95232.16;;;16.16;63.84
69524;BME280;56723;42.694;23.286;2023-05-08T07:36:10;95237.00;;;16.19;62.47
69524;BME280;56723;42.694;23.286;2023-05-08T07:38:37;95229.34;;;16.17;61.86
69524;BME280;56723;42.694;23.286;2023-05-08T07:41:04;95232.63;;;16.26;62.94
69524;BME280;56723;42.694;23.286;2023-05-08T07:43:32;95240.50;;;16.39;62.50
69524;BME280;56723;42.694;23.286;2023-05-08T07:45:59;95240.31;;;16.41;61.02
69524;BME280;56723;42.694;23.286;2023-05-08T07:48:26;95245.16;;;16.44;60.14
69524;BME280;56723;42.694;23.286;2023-05-08T07:50:53;95240.34;;;16.47;60.94
69524;BME280;56723;42.694;23.286;2023-05-08T07:53:20;95242.81;;;16.62;59.61
69524;BME280;56723;42.694;23.286;2023-05-08T07:55:47;95250.72;;;16.75;58.79
69524;BME280;56723;42.694;23.286;2023-05-08T07:58:14;95241.69;;;16.91;58.71
69524;BME280;56723;42.694;23.286;2023-05-08T08:00:41;95235.28;;;17.13;58.31
69524;BME280;56723;42.694;23.286;2023-05-08T08:03:08;95239.72;;;17.26;57.10
69524;BME280;56723;42.694;23.286;2023-05-08T08:05:35;95234.31;;;17.21;57.83
69524;BME280;56723;42.694;23.286;2023-05-08T08:08:02;95238.94;;;17.39;57.46
69524;BME280;56723;42.694;23.286;2023-05-08T08:10:30;95247.59;;;17.46;57.70
69524;BME280;56723;42.694;23.286;2023-05-08T08:12:57;95239.94;;;17.44;58.14
69524;BME280;56723;42.694;23.286;2023-05-08T08:15:24;95250.63;;;17.43;58.31
69524;BME280;56723;42.694;23.286;2023-05-08T08:17:51;95241.78;;;17.44;58.56
69524;BME280;56723;42.694;23.286;2023-05-08T08:20:18;95226.25;;;17.42;58.93
69524;BME280;56723;42.694;23.286;2023-05-08T08:22:45;95230.47;;;17.50;58.88
69524;BME280;56723;42.694;23.286;2023-05-08T08:25:12;95229.66;;;17.49;58.63
69524;BME280;56723;42.694;23.286;2023-05-08T08:27:39;95242.16;;;17.74;58.91
69524;BME280;56723;42.694;23.286;2023-05-08T08:30:07;95230.25;;;17.84;59.48
69524;BME280;56723;42.694;23.286;2023-05-08T08:32:42;95214.91;;;17.94;58.64
69524;BME280;56723;42.694;23.286;2023-05-08T08:35:10;95226.22;;;17.95;58.13
69524;BME280;56723;42.694;23.286;2023-05-08T08:37:38;95222.38;;;17.97;59.53
69524;BME280;56723;42.694;23.286;2023-05-08T08:40:05;95218.69;;;18.05;59.83
69524;BME280;56723;42.694;23.286;2023-05-08T08:42:33;95217.88;;;18.18;58.57
69524;BME280;56723;42.694;23.286;2023-05-08T08:45:00;95213.81;;;18.22;57.36
69524;BME280;56723;42.694;23.286;2023-05-08T08:47:28;95207.41;;;18.11;57.83
69524;BME280;56723;42.694;23.286;2023-05-08T08:49:57;95215.81;;;18.20;58.28
69524;BME280;56723;42.694;23.286;2023-05-08T08:52:47;95204.78;;;18.11;58.53
69524;BME280;56723;42.694;23.286;2023-05-08T08:55:19;95190.41;;;18.20;58.94
69524;BME280;56723;42.694;23.286;2023-05-08T08:58:10;95192.88;;;18.09;58.14
69524;BME280;56723;42.694;23.286;2023-05-08T09:00:40;95188.22;;;18.17;59.38
69524;BME280;56723;42.694;23.286;2023-05-08T09:03:07;95182.72;;;18.25;59.12
69524;BME280;56723;42.694;23.286;2023-05-08T09:05:36;95182.72;;;18.32;59.05
69524;BME280;56723;42.694;23.286;2023-05-08T09:08:04;95179.03;;;18.40;59.54
69524;BME280;56723;42.694;23.286;2023-05-08T09:10:31;95173.78;;;18.40;58.93
69524;BME280;56723;42.694;23.286;2023-05-08T09:12:58;95163.25;;;18.46;59.63
69524;BME280;56723;42.694;23.286;2023-05-08T09:15:25;95158.41;;;18.50;58.46
69524;BME280;56723;42.694;23.286;2023-05-08T09:17:52;95152.56;;;18.48;58.72
69524;BME280;56723;42.694;23.286;2023-05-08T09:20:20;95148.91;;;18.49;58.77
69524;BME280;56723;42.694;23.286;2023-05-08T09:22:47;95136.16;;;18.59;59.10
69524;BME280;56723;42.694;23.286;2023-05-08T09:25:14;95139.72;;;18.71;58.73
69524;BME280;56723;42.694;23.286;2023-05-08T09:27:42;95141.69;;;18.76;58.55
69524;BME280;56723;42.694;23.286;2023-05-08T09:30:10;95146.91;;;18.82;58.21
69524;BME280;56723;42.694;23.286;2023-05-08T09:32:39;95153.94;;;18.88;56.84
69524;BME280;56723;42.694;23.286;2023-05-08T09:35:08;95160.16;;;18.94;57.22
69524;BME280;56723;42.694;23.286;2023-05-08T09:37:38;95164.19;;;18.96;57.72
69524;BME280;56723;42.694;23.286;2023-05-08T09:42:39;95173.34;;;19.12;57.16
69524;BME280;56723;42.694;23.286;2023-05-08T09:45:06;95161.09;;;19.06;57.21
69524;BME280;56723;42.694;23.286;2023-05-08T09:47:34;95164.25;;;19.15;56.95
69524;BME280;56723;42.694;23.286;2023-05-08T09:50:06;95160.16;;;19.19;56.89
69524;BME280;56723;42.694;23.286;2023-05-08T09:52:36;95163.59;;;19.19;56.25
69524;BME280;56723;42.694;23.286;2023-05-08T09:55:09;95161.94;;;19.25;56.80
69524;BME280;56723;42.694;23.286;2023-05-08T09:57:39;95159.53;;;19.23;56.61
69524;BME280;56723;42.694;23.286;2023-05-08T10:00:11;95153.34;;;19.36;57.36
69524;BME280;56723;42.694;23.286;2023-05-08T10:02:40;95152.91;;;19.39;56.67
69524;BME280;56723;42.694;23.286;2023-05-08T10:07:50;95159.25;;;19.56;56.11
69524;BME280;56723;42.694;23.286;2023-05-08T10:10:24;95158.53;;;19.67;56.29
69524;BME280;56723;42.694;23.286;2023-05-08T10:12:53;95151.81;;;19.71;56.50
69524;BME280;56723;42.694;23.286;2023-05-08T10:15:28;95153.16;;;19.81;55.40
69524;BME280;56723;42.694;23.286;2023-05-08T10:18:03;95152.50;;;19.85;55.19
69524;BME280;56723;42.694;23.286;2023-05-08T10:20:38;95148.47;;;19.83;54.82
69524;BME280;56723;42.694;23.286;2023-05-08T10:23:10;95148.03;;;19.86;55.18
69524;BME280;56723;42.694;23.286;2023-05-08T10:25:47;95141.47;;;19.95;55.07
69524;BME280;56723;42.694;23.286;2023-05-08T10:28:26;95140.59;;;19.83;55.47
69524;BME280;56723;42.694;23.286;2023-05-08T10:30:58;95136.72;;;19.85;56.44
69524;BME280;56723;42.694;23.286;2023-05-08T10:33:29;95140.13;;;20.04;55.34
69524;BME280;56723;42.694;23.286;2023-05-08T10:35:59;95134.72;;;20.17;54.11
69524;BME280;56723;42.694;23.286;2023-05-08T10:38:26;95129.72;;;20.27;53.85
69524;BME280;56723;42.694;23.286;2023-05-08T10:40:54;95129.72;;;20.46;54.11
69524;BME280;56723;42.694;23.286;2023-05-08T10:43:24;95127.19;;;20.39;52.87
69524;BME280;56723;42.694;23.286;2023-05-08T10:45:53;95123.78;;;20.32;53.11
69524;BME280;56723;42.694;23.286;2023-05-08T10:51:42;95116.94;;;20.61;52.52
69524;BME280;56723;42.694;23.286;2023-05-08T10:54:37;95123.44;;;21.00;51.10
69524;BME280;56723;42.694;23.286;2023-05-08T10:57:10;95116.59;;;21.11;50.52
69524;BME280;56723;42.694;23.286;2023-05-08T10:59:37;95112.16;;;21.23;50.21
69524;BME280;56723;42.694;23.286;2023-05-08T11:02:07;95115.25;;;21.43;48.22
69524;BME280;56723;42.694;23.286;2023-05-08T11:04:35;95106.28;;;21.56;48.26
69524;BME280;56723;42.694;23.286;2023-05-08T11:07:02;95101.47;;;21.53;47.49
69524;BME280;56723;42.694;23.286;2023-05-08T11:09:45;95092.75;;;21.75;48.87
69524;BME280;56723;42.694;23.286;2023-05-08T11:12:18;95084.91;;;22.04;47.81
69524;BME280;56723;42.694;23.286;2023-05-08T11:15:04;95081.75;;;22.19;47.23
69524;BME280;56723;42.694;23.286;2023-05-08T11:17:35;95078.69;;;22.38;44.38
69524;BME280;56723;42.694;23.286;2023-05-08T11:20:04;95081.13;;;22.57;41.51
69524;BME280;56723;42.694;23.286;2023-05-08T11:22:33;95077.81;;;22.50;41.57
69524;BME280;56723;42.694;23.286;2023-05-08T11:25:10;95056.09;;;22.31;41.62
69524;BME280;56723;42.694;23.286;2023-05-08T11:28:09;95065.53;;;22.27;42.41
69524;BME280;56723;42.694;23.286;2023-05-08T11:30:36;95058.97;;;22.29;42.49
69524;BME280;56723;42.694;23.286;2023-05-08T11:38:13;95052.19;;;22.95;40.53
69524;BME280;56723;42.694;23.286;2023-05-08T11:40:47;95053.19;;;23.28;40.46
69524;BME280;56723;42.694;23.286;2023-05-08T11:46:15;95034.84;;;23.38;39.56
69524;BME280;56723;42.694;23.286;2023-05-08T11:48:42;95028.75;;;23.21;40.39
69524;BME280;56723;42.694;23.286;2023-05-08T11:51:10;95020.44;;;23.29;40.66
69524;BME280;56723;42.694;23.286;2023-05-08T11:53:39;95023.34;;;23.49;41.02
69524;BME280;56723;42.694;23.286;2023-05-08T11:56:06;95017.91;;;23.56;39.48
69524;BME280;56723;42.694;23.286;2023-05-08T11:58:34;95018.81;;;23.28;40.03
69524;BME280;56723;42.694;23.286;2023-05-08T12:01:02;95024.44;;;23.31;39.96
69524;BME280;56723;42.694;23.286;2023-05-08T12:03:29;95021.53;;;22.94;40.41
69524;BME280;56723;42.694;23.286;2023-05-08T12:05:58;95026.03;;;22.77;40.42
69524;BME280;56723;42.694;23.286;2023-05-08T12:08:25;95014.75;;;22.82;40.51
69524;BME280;56723;42.694;23.286;2023-05-08T12:10:54;95006.84;;;23.03;40.48
69524;BME280;56723;42.694;23.286;2023-05-08T12:13:28;95003.66;;;23.01;39.37
69524;BME280;56723;42.694;23.286;2023-05-08T12:15:58;95000.91;;;23.13;40.09
69524;BME280;56723;42.694;23.286;2023-05-08T12:18:27;95008.53;;;23.09;39.29
69524;BME280;56723;42.694;23.286;2023-05-08T12:20:56;94996.78;;;23.00;39.55
69524;BME280;56723;42.694;23.286;2023-05-08T12:23:25;94997.47;;;23.12;38.98
69524;BME280;56723;42.694;23.286;2023-05-08T12:25:52;95006.72;;;23.32;39.00
69524;BME280;56723;42.694;23.286;2023-05-08T12:28:21;94990.66;;;23.17;38.66
69524;BME280;56723;42.694;23.286;2023-05-08T12:30:48;94995.72;;;23.01;39.33
69524;BME280;56723;42.694;23.286;2023-05-08T12:33:17;95002.84;;;23.18;39.50
69524;BME280;56723;42.694;23.286;2023-05-08T12:35:45;94994.50;;;23.09;39.43
69524;BME280;56723;42.694;23.286;2023-05-08T12:38:12;95000.72;;;23.20;39.13
69524;BME280;56723;42.694;23.286;2023-05-08T12:40:44;95008.59;;;23.14;38.93
69524;BME280;56723;42.694;23.286;2023-05-08T12:43:11;94994.69;;;23.02;39.01
69524;BME280;56723;42.694;23.286;2023-05-08T12:45:40;94991.94;;;22.64;39.66
69524;BME280;56723;42.694;23.286;2023-05-08T12:48:09;94987.47;;;22.48;40.22
69524;BME280;56723;42.694;23.286;2023-05-08T12:50:39;94997.09;;;22.54;40.16
69524;BME280;56723;42.694;23.286;2023-05-08T12:53:11;95006.63;;;22.55;40.73
69524;BME280;56723;42.694;23.286;2023-05-08T12:55:39;94995.16;;;22.32;39.95
69524;BME280;56723;42.694;23.286;2023-05-08T12:58:09;94983.31;;;22.35;40.29
69524;BME280;56723;42.694;23.286;2023-05-08T13:00:43;94981.38;;;22.30;40.57
69524;BME280;56723;42.694;23.286;2023-05-08T13:03:12;94985.88;;;22.30;41.03
69524;BME280;56723;42.694;23.286;2023-05-08T13:05:42;94985.88;;;22.46;40.00
69524;BME280;56723;42.694;23.286;2023-05-08T13:08:10;94980.28;;;22.60;38.72
69524;BME280;56723;42.694;23.286;2023-05-08T13:10:43;94985.09;;;22.63;38.13
69524;BME280;56723;42.694;23.286;2023-05-08T13:13:16;94998.59;;;22.50;39.73
69524;BME280;56723;42.694;23.286;2023-05-08T13:15:44;95010.16;;;22.15;45.97
69524;BME280;56723;42.694;23.286;2023-05-08T13:18:11;95010.72;;;21.89;47.91
69524;BME280;56723;42.694;23.286;2023-05-08T13:20:38;95005.00;;;21.52;50.06
69524;BME280;56723;42.694;23.286;2023-05-08T13:23:06;95008.81;;;21.21;50.45
69524;BME280;56723;42.694;23.286;2023-05-08T13:25:35;95014.88;;;20.74;51.88
69524;BME280;56723;42.694;23.286;2023-05-08T13:28:03;95022.25;;;20.43;53.56
69524;BME280;56723;42.694;23.286;2023-05-08T13:30:30;95029.06;;;20.32;53.43
69524;BME280;56723;42.694;23.286;2023-05-08T13:32:58;95030.66;;;20.21;53.72
69524;BME280;56723;42.694;23.286;2023-05-08T13:35:25;95036.78;;;20.15;54.00
69524;BME280;56723;42.694;23.286;2023-05-08T13:37:54;95042.69;;;19.99;55.14
69524;BME280;56723;42.694;23.286;2023-05-08T13:40:22;95049.25;;;19.90;56.32
69524;BME280;56723;42.694;23.286;2023-05-08T13:42:50;95048.09;;;19.86;56.91
69524;BME280;56723;42.694;23.286;2023-05-08T13:45:18;95045.78;;;19.78;57.66
69524;BME280;56723;42.694;23.286;2023-05-08T13:47:47;95050.84;;;19.61;58.76
69524;BME280;56723;42.694;23.286;2023-05-08T13:50:17;95057.19;;;19.53;58.30
69524;BME280;56723;42.694;23.286;2023-05-08T13:52:48;95051.84;;;19.42;59.16
69524;BME280;56723;42.694;23.286;2023-05-08T13:55:18;95047.88;;;19.32;59.58
69524;BME280;56723;42.694;23.286;2023-05-08T13:57:47;95067.22;;;19.20;60.30
69524;BME280;56723;42.694;23.286;2023-05-08T14:00:15;95065.44;;;19.14;60.60
69524;BME280;56723;42.694;23.286;2023-05-08T14:02:42;95064.25;;;18.91;62.00
69524;BME280;56723;42.694;23.286;2023-05-08T14:05:09;95080.69;;;18.80;63.18
69524;BME280;56723;42.694;23.286;2023-05-08T14:14:09;95095.19;;;18.20;65.75
69524;BME280;56723;42.694;23.286;2023-05-08T14:26:58;95121.47;;;17.36;69.53
69524;BME280;56723;42.694;23.286;2023-05-08T14:29:25;95127.31;;;17.31;70.07
69524;BME280;56723;42.694;23.286;2023-05-08T14:31:52;95127.34;;;17.18;70.01
69524;BME280;56723;42.694;23.286;2023-05-08T14:34:19;95128.97;;;17.06;70.42
69524;BME280;56723;42.694;23.286;2023-05-08T14:36:46;95133.38;;;16.99;71.06
69524;BME280;56723;42.694;23.286;2023-05-08T14:39:13;95129.75;;;17.00;71.24
